sensor_id;sensor_type;location;lat;lon;timestamp;P1;durP1;ratioP1;P2;durP2;ratioP2
12145;SDS011;6136;47.032;15.398;2024-01-15T00:02:21;63.20;;;30.13;;
12145;SDS011;6136;47.032;15.398;2024-01-15T00:04:49;59.40;;;28.40;;
12145;SDS011;6136;47.032;15.398;2024-01-15T00:07:17;65.77;;;29.93;;
12145;SDS011;6136;47.032;15.398;2024-01-15T00:09:45;66.53;;;30.37;;
12145;SDS011;6136;47.032;15.398;2024-01-15T00:12:15;63.07;;;31.17;;
12145;SDS011;6136;47.032;15.398;2024-01-15T00:14:43;62.17;;;31.00;;
12145;SDS011;6136;47.032;15.398;2024-01-15T00:17:11;70.10;;;31.70;;
12145;SDS011;6136;47.032;15.398;2024-01-15T00:19:39;74.13;;;31.97;;
12145;SDS011;6136;47.032;15.398;2024-01-15T00:22:08;64.53;;;28.57;;
12145;SDS011;6136;47.032;15.398;2024-01-15T00:24:36;66.37;;;31.23;;
12145;SDS011;6136;47.032;15.398;2024-01-15T00:27:04;63.63;;;28.70;;
12145;SDS011;6136;47.032;15.398;2024-01-15T00:29:34;69.17;;;30.93;;
12145;SDS011;6136;47.032;15.398;2024-01-15T00:32:01;69.60;;;31.77;;
12145;SDS011;6136;47.032;15.398;2024-01-15T00:34:29;70.37;;;30.20;;
12145;SDS011;6136;47.032;15.398;2024-01-15T00:36:58;64.03;;;28.83;;
12145;SDS011;6136;47.032;15.398;2024-01-15T00:39:26;58.83;;;28.20;;
12145;SDS011;6136;47.032;15.398;2024-01-15T00:41:54;65.93;;;31.67;;
12145;SDS011;6136;47.032;15.398;2024-01-15T00:44:22;69.90;;;31.90;;
12145;SDS011;6136;47.032;15.398;2024-01-15T00:46:51;58.30;;;28.37;;
12145;SDS011;6136;47.032;15.398;2024-01-15T00:49:19;73.20;;;30.80;;
12145;SDS011;6136;47.032;15.398;2024-01-15T00:51:47;59.60;;;28.63;;
12145;SDS011;6136;47.032;15.398;2024-01-15T00:54:15;62.20;;;29.10;;
12145;SDS011;6136;47.032;15.398;2024-01-15T00:56:44;62.80;;;29.03;;
12145;SDS011;6136;47.032;15.398;2024-01-15T00:59:12;54.70;;;27.23;;
12145;SDS011;6136;47.032;15.398;2024-01-15T01:01:42;57.70;;;28.50;;
12145;SDS011;6136;47.032;15.398;2024-01-15T01:04:12;61.57;;;29.10;;
12145;SDS011;6136;47.032;15.398;2024-01-15T01:06:40;61.43;;;29.90;;
12145;SDS011;6136;47.032;15.398;2024-01-15T01:09:08;56.73;;;28.73;;
12145;SDS011;6136;47.032;15.398;2024-01-15T01:11:36;64.23;;;29.53;;
12145;SDS011;6136;47.032;15.398;2024-01-15T01:14:04;59.90;;;28.93;;
12145;SDS011;6136;47.032;15.398;2024-01-15T01:16:33;64.87;;;30.40;;
12145;SDS011;6136;47.032;15.398;2024-01-15T01:19:06;62.07;;;29.63;;
12145;SDS011;6136;47.032;15.398;2024-01-15T01:21:36;60.07;;;27.17;;
12145;SDS011;6136;47.032;15.398;2024-01-15T01:24:04;55.43;;;29.10;;
12145;SDS011;6136;47.032;15.398;2024-01-15T01:26:32;58.90;;;28.17;;
12145;SDS011;6136;47.032;15.398;2024-01-15T01:29:00;56.30;;;28.73;;
12145;SDS011;6136;47.032;15.398;2024-01-15T01:31:28;70.67;;;31.37;;
12145;SDS011;6136;47.032;15.398;2024-01-15T01:33:57;65.63;;;30.77;;
12145;SDS011;6136;47.032;15.398;2024-01-15T01:36:25;63.80;;;29.93;;
12145;SDS011;6136;47.032;15.398;2024-01-15T01:38:54;60.70;;;29.07;;
12145;SDS011;6136;47.032;15.398;2024-01-15T01:41:22;66.03;;;31.20;;
12145;SDS011;6136;47.032;15.398;2024-01-15T01:43:50;61.83;;;29.13;;
12145;SDS011;6136;47.032;15.398;2024-01-15T01:46:18;62.70;;;27.93;;
12145;SDS011;6136;47.032;15.398;2024-01-15T01:48:46;53.97;;;27.07;;
12145;SDS011;6136;47.032;15.398;2024-01-15T01:51:15;63.97;;;31.10;;
12145;SDS011;6136;47.032;15.398;2024-01-15T01:53:43;59.97;;;29.20;;
12145;SDS011;6136;47.032;15.398;2024-01-15T01:56:13;62.17;;;30.60;;
12145;SDS011;6136;47.032;15.398;2024-01-15T01:58:42;63.90;;;29.23;;
12145;SDS011;6136;47.032;15.398;2024-01-15T02:01:10;55.30;;;28.37;;
12145;SDS011;6136;47.032;15.398;2024-01-15T02:03:39;61.40;;;28.70;;
12145;SDS011;6136;47.032;15.398;2024-01-15T02:06:08;55.30;;;29.27;;
12145;SDS011;6136;47.032;15.398;2024-01-15T02:08:36;61.67;;;28.40;;
12145;SDS011;6136;47.032;15.398;2024-01-15T02:11:04;60.33;;;27.43;;
12145;SDS011;6136;47.032;15.398;2024-01-15T02:13:34;60.30;;;28.60;;
12145;SDS011;6136;47.032;15.398;2024-01-15T02:16:02;61.23;;;26.87;;
12145;SDS011;6136;47.032;15.398;2024-01-15T02:18:37;55.40;;;27.80;;
12145;SDS011;6136;47.032;15.398;2024-01-15T02:21:06;66.00;;;29.77;;
12145;SDS011;6136;47.032;15.398;2024-01-15T02:23:36;64.07;;;30.37;;
12145;SDS011;6136;47.032;15.398;2024-01-15T02:26:04;70.00;;;30.47;;
12145;SDS011;6136;47.032;15.398;2024-01-15T02:28:32;62.20;;;31.30;;
12145;SDS011;6136;47.032;15.398;2024-01-15T02:31:00;63.37;;;29.70;;
12145;SDS011;6136;47.032;15.398;2024-01-15T02:33:29;65.40;;;29.53;;
12145;SDS011;6136;47.032;15.398;2024-01-15T02:35:57;68.03;;;29.97;;
12145;SDS011;6136;47.032;15.398;2024-01-15T02:38:25;60.03;;;30.13;;
12145;SDS011;6136;47.032;15.398;2024-01-15T02:40:54;63.43;;;29.80;;
12145;SDS011;6136;47.032;15.398;2024-01-15T02:43:22;65.13;;;28.70;;
12145;SDS011;6136;47.032;15.398;2024-01-15T02:45:50;60.30;;;28.97;;
12145;SDS011;6136;47.032;15.398;2024-01-15T02:48:18;60.17;;;28.00;;
12145;SDS011;6136;47.032;15.398;2024-01-15T02:50:47;60.20;;;27.93;;
12145;SDS011;6136;47.032;15.398;2024-01-15T02:53:15;58.67;;;28.83;;
12145;SDS011;6136;47.032;15.398;2024-01-15T02:55:43;62.93;;;30.77;;
12145;SDS011;6136;47.032;15.398;2024-01-15T02:58:12;60.57;;;31.03;;
12145;SDS011;6136;47.032;15.398;2024-01-15T03:00:40;60.53;;;28.50;;
12145;SDS011;6136;47.032;15.398;2024-01-15T03:03:50;56.70;;;28.47;;
12145;SDS011;6136;47.032;15.398;2024-01-15T03:06:47;57.37;;;28.23;;
12145;SDS011;6136;47.032;15.398;2024-01-15T03:20:27;61.30;;;29.00;;
12145;SDS011;6136;47.032;15.398;2024-01-15T03:27:35;56.93;;;27.40;;
12145;SDS011;6136;47.032;15.398;2024-01-15T03:30:57;61.73;;;29.53;;
12145;SDS011;6136;47.032;15.398;2024-01-15T03:34:15;55.63;;;28.77;;
12145;SDS011;6136;47.032;15.398;2024-01-15T03:37:17;50.40;;;27.40;;
12145;SDS011;6136;47.032;15.398;2024-01-15T03:40:25;58.73;;;28.57;;
12145;SDS011;6136;47.032;15.398;2024-01-15T03:43:58;56.70;;;29.17;;
12145;SDS011;6136;47.032;15.398;2024-01-15T03:47:01;63.93;;;31.20;;
12145;SDS011;6136;47.032;15.398;2024-01-15T03:49:29;57.50;;;29.43;;
12145;SDS011;6136;47.032;15.398;2024-01-15T03:51:58;57.90;;;27.17;;
12145;SDS011;6136;47.032;15.398;2024-01-15T03:54:27;56.73;;;27.93;;
12145;SDS011;6136;47.032;15.398;2024-01-15T03:56:55;58.90;;;28.30;;
12145;SDS011;6136;47.032;15.398;2024-01-15T03:59:23;57.80;;;28.27;;
12145;SDS011;6136;47.032;15.398;2024-01-15T04:01:51;55.57;;;27.33;;
12145;SDS011;6136;47.032;15.398;2024-01-15T04:04:19;57.27;;;27.83;;
12145;SDS011;6136;47.032;15.398;2024-01-15T04:06:47;54.93;;;25.00;;
12145;SDS011;6136;47.032;15.398;2024-01-15T04:09:15;53.63;;;27.37;;
12145;SDS011;6136;47.032;15.398;2024-01-15T04:11:45;54.10;;;27.47;;
12145;SDS011;6136;47.032;15.398;2024-01-15T04:14:13;57.07;;;27.33;;
12145;SDS011;6136;47.032;15.398;2024-01-15T04:16:41;54.47;;;26.03;;
12145;SDS011;6136;47.032;15.398;2024-01-15T04:19:09;50.87;;;26.60;;
12145;SDS011;6136;47.032;15.398;2024-01-15T04:21:37;58.50;;;28.93;;
12145;SDS011;6136;47.032;15.398;2024-01-15T04:24:05;52.00;;;26.00;;
12145;SDS011;6136;47.032;15.398;2024-01-15T04:26:33;47.90;;;25.30;;
12145;SDS011;6136;47.032;15.398;2024-01-15T04:29:03;61.73;;;28.40;;
12145;SDS011;6136;47.032;15.398;2024-01-15T04:31:31;58.13;;;26.87;;
12145;SDS011;6136;47.032;15.398;2024-01-15T04:33:59;55.30;;;26.33;;
12145;SDS011;6136;47.032;15.398;2024-01-15T04:36:27;50.50;;;26.33;;
12145;SDS011;6136;47.032;15.398;2024-01-15T04:38:55;48.43;;;25.67;;
12145;SDS011;6136;47.032;15.398;2024-01-15T04:41:23;56.40;;;26.43;;
12145;SDS011;6136;47.032;15.398;2024-01-15T04:43:51;54.50;;;27.63;;
12145;SDS011;6136;47.032;15.398;2024-01-15T04:46:20;48.93;;;25.37;;
12145;SDS011;6136;47.032;15.398;2024-01-15T04:48:48;47.33;;;24.87;;
12145;SDS011;6136;47.032;15.398;2024-01-15T04:51:17;51.53;;;25.87;;
12145;SDS011;6136;47.032;15.398;2024-01-15T04:53:45;54.03;;;26.43;;
12145;SDS011;6136;47.032;15.398;2024-01-15T04:56:13;49.93;;;25.37;;
12145;SDS011;6136;47.032;15.398;2024-01-15T04:58:41;52.63;;;26.10;;
12145;SDS011;6136;47.032;15.398;2024-01-15T05:01:09;53.97;;;25.73;;
12145;SDS011;6136;47.032;15.398;2024-01-15T05:03:38;55.23;;;27.73;;
12145;SDS011;6136;47.032;15.398;2024-01-15T05:06:07;53.67;;;26.03;;
12145;SDS011;6136;47.032;15.398;2024-01-15T05:08:35;58.07;;;27.27;;
12145;SDS011;6136;47.032;15.398;2024-01-15T05:11:03;50.57;;;26.27;;
12145;SDS011;6136;47.032;15.398;2024-01-15T05:13:31;52.17;;;26.03;;
12145;SDS011;6136;47.032;15.398;2024-01-15T05:15:59;53.03;;;27.03;;
12145;SDS011;6136;47.032;15.398;2024-01-15T05:18:27;57.80;;;28.53;;
12145;SDS011;6136;47.032;15.398;2024-01-15T05:20:57;49.23;;;25.90;;
12145;SDS011;6136;47.032;15.398;2024-01-15T05:23:25;56.73;;;26.97;;
12145;SDS011;6136;47.032;15.398;2024-01-15T05:25:53;48.87;;;25.00;;
12145;SDS011;6136;47.032;15.398;2024-01-15T05:28:21;58.10;;;28.93;;
12145;SDS011;6136;47.032;15.398;2024-01-15T05:30:49;49.30;;;25.00;;
12145;SDS011;6136;47.032;15.398;2024-01-15T05:33:18;56.03;;;26.83;;
12145;SDS011;6136;47.032;15.398;2024-01-15T05:35:46;50.97;;;26.67;;
12145;SDS011;6136;47.032;15.398;2024-01-15T05:38:15;49.20;;;27.03;;
12145;SDS011;6136;47.032;15.398;2024-01-15T05:40:43;52.37;;;26.43;;
12145;SDS011;6136;47.032;15.398;2024-01-15T05:43:11;53.70;;;27.20;;
12145;SDS011;6136;47.032;15.398;2024-01-15T05:45:42;63.93;;;27.37;;
12145;SDS011;6136;47.032;15.398;2024-01-15T05:48:10;52.63;;;27.67;;
12145;SDS011;6136;47.032;15.398;2024-01-15T05:50:38;58.13;;;27.63;;
12145;SDS011;6136;47.032;15.398;2024-01-15T05:53:06;60.30;;;28.73;;
12145;SDS011;6136;47.032;15.398;2024-01-15T05:55:36;52.87;;;30.13;;
12145;SDS011;6136;47.032;15.398;2024-01-15T05:58:04;60.83;;;28.83;;
12145;SDS011;6136;47.032;15.398;2024-01-15T06:00:33;63.10;;;29.33;;
12145;SDS011;6136;47.032;15.398;2024-01-15T06:03:02;63.13;;;29.90;;
12145;SDS011;6136;47.032;15.398;2024-01-15T06:05:30;55.40;;;28.43;;
12145;SDS011;6136;47.032;15.398;2024-01-15T06:07:58;63.23;;;30.33;;
12145;SDS011;6136;47.032;15.398;2024-01-15T06:10:26;69.07;;;32.13;;
12145;SDS011;6136;47.032;15.398;2024-01-15T06:12:55;55.63;;;30.70;;
12145;SDS011;6136;47.032;15.398;2024-01-15T06:15:23;65.47;;;32.07;;
12145;SDS011;6136;47.032;15.398;2024-01-15T06:17:52;56.03;;;28.20;;
12145;SDS011;6136;47.032;15.398;2024-01-15T06:20:20;56.90;;;29.40;;
12145;SDS011;6136;47.032;15.398;2024-01-15T06:22:48;58.70;;;28.93;;
12145;SDS011;6136;47.032;15.398;2024-01-15T06:25:16;58.57;;;29.70;;
12145;SDS011;6136;47.032;15.398;2024-01-15T06:27:44;50.23;;;27.40;;
12145;SDS011;6136;47.032;15.398;2024-01-15T06:30:14;51.10;;;28.00;;
12145;SDS011;6136;47.032;15.398;2024-01-15T06:32:43;56.77;;;28.93;;
12145;SDS011;6136;47.032;15.398;2024-01-15T06:35:11;58.63;;;29.10;;
12145;SDS011;6136;47.032;15.398;2024-01-15T06:37:39;61.50;;;30.30;;
12145;SDS011;6136;47.032;15.398;2024-01-15T06:40:07;57.93;;;29.33;;
12145;SDS011;6136;47.032;15.398;2024-01-15T06:42:36;59.57;;;29.50;;
12145;SDS011;6136;47.032;15.398;2024-01-15T06:45:05;54.27;;;27.90;;
12145;SDS011;6136;47.032;15.398;2024-01-15T06:47:34;62.10;;;30.27;;
12145;SDS011;6136;47.032;15.398;2024-01-15T06:50:02;60.47;;;31.30;;
12145;SDS011;6136;47.032;15.398;2024-01-15T06:52:31;59.40;;;28.90;;
12145;SDS011;6136;47.032;15.398;2024-01-15T06:54:59;62.43;;;31.87;;
12145;SDS011;6136;47.032;15.398;2024-01-15T06:57:27;65.87;;;30.97;;
12145;SDS011;6136;47.032;15.398;2024-01-15T06:59:55;74.57;;;34.37;;
12145;SDS011;6136;47.032;15.398;2024-01-15T07:02:23;87.53;;;37.03;;
12145;SDS011;6136;47.032;15.398;2024-01-15T07:04:54;77.43;;;38.60;;
12145;SDS011;6136;47.032;15.398;2024-01-15T07:07:22;90.83;;;36.27;;
12145;SDS011;6136;47.032;15.398;2024-01-15T07:09:50;81.50;;;35.53;;
12145;SDS011;6136;47.032;15.398;2024-01-15T07:12:19;83.20;;;38.13;;
12145;SDS011;6136;47.032;15.398;2024-01-15T07:14:47;88.40;;;37.77;;
12145;SDS011;6136;47.032;15.398;2024-01-15T07:17:15;85.47;;;36.93;;
12145;SDS011;6136;47.032;15.398;2024-01-15T07:19:43;75.50;;;35.93;;
12145;SDS011;6136;47.032;15.398;2024-01-15T07:22:13;83.10;;;36.43;;
12145;SDS011;6136;47.032;15.398;2024-01-15T07:24:41;79.77;;;38.90;;
12145;SDS011;6136;47.032;15.398;2024-01-15T07:27:09;91.00;;;41.03;;
12145;SDS011;6136;47.032;15.398;2024-01-15T07:29:37;91.30;;;42.03;;
12145;SDS011;6136;47.032;15.398;2024-01-15T07:32:05;86.27;;;38.43;;
12145;SDS011;6136;47.032;15.398;2024-01-15T07:34:34;81.53;;;37.17;;
12145;SDS011;6136;47.032;15.398;2024-01-15T07:37:02;92.63;;;39.57;;
12145;SDS011;6136;47.032;15.398;2024-01-15T07:39:32;85.53;;;38.53;;
12145;SDS011;6136;47.032;15.398;2024-01-15T07:42:01;82.73;;;36.57;;
12145;SDS011;6136;47.032;15.398;2024-01-15T07:44:29;72.43;;;34.40;;
12145;SDS011;6136;47.032;15.398;2024-01-15T07:46:57;83.83;;;36.23;;
12145;SDS011;6136;47.032;15.398;2024-01-15T07:49:25;76.13;;;33.23;;
12145;SDS011;6136;47.032;15.398;2024-01-15T07:51:54;72.33;;;32.50;;
12145;SDS011;6136;47.032;15.398;2024-01-15T07:54:21;54.53;;;27.53;;
12145;SDS011;6136;47.032;15.398;2024-01-15T07:56:54;49.40;;;25.90;;
12145;SDS011;6136;47.032;15.398;2024-01-15T07:59:22;48.50;;;27.03;;
12145;SDS011;6136;47.032;15.398;2024-01-15T08:01:51;54.63;;;27.27;;
12145;SDS011;6136;47.032;15.398;2024-01-15T08:04:19;47.40;;;25.33;;
12145;SDS011;6136;47.032;15.398;2024-01-15T08:06:48;51.40;;;26.07;;
12145;SDS011;6136;47.032;15.398;2024-01-15T08:09:16;49.00;;;25.70;;
12145;SDS011;6136;47.032;15.398;2024-01-15T08:11:44;49.60;;;25.57;;
12145;SDS011;6136;47.032;15.398;2024-01-15T08:14:14;50.83;;;26.23;;
12145;SDS011;6136;47.032;15.398;2024-01-15T08:16:42;47.60;;;25.57;;
12145;SDS011;6136;47.032;15.398;2024-01-15T08:19:10;46.00;;;25.50;;
12145;SDS011;6136;47.032;15.398;2024-01-15T08:21:39;44.10;;;23.73;;
12145;SDS011;6136;47.032;15.398;2024-01-15T08:24:07;52.70;;;25.30;;
12145;SDS011;6136;47.032;15.398;2024-01-15T08:26:36;47.90;;;25.20;;
12145;SDS011;6136;47.032;15.398;2024-01-15T08:29:04;50.37;;;25.43;;
12145;SDS011;6136;47.032;15.398;2024-01-15T08:31:33;45.70;;;23.93;;
12145;SDS011;6136;47.032;15.398;2024-01-15T08:34:01;48.27;;;24.43;;
12145;SDS011;6136;47.032;15.398;2024-01-15T08:36:29;42.70;;;23.83;;
12145;SDS011;6136;47.032;15.398;2024-01-15T08:38:57;42.77;;;22.90;;
12145;SDS011;6136;47.032;15.398;2024-01-15T08:41:25;39.60;;;20.13;;
12145;SDS011;6136;47.032;15.398;2024-01-15T08:43:53;42.27;;;21.43;;
12145;SDS011;6136;47.032;15.398;2024-01-15T08:46:21;38.57;;;21.47;;
12145;SDS011;6136;47.032;15.398;2024-01-15T08:48:52;43.33;;;21.60;;
12145;SDS011;6136;47.032;15.398;2024-01-15T08:51:20;49.57;;;22.53;;
12145;SDS011;6136;47.032;15.398;2024-01-15T08:53:48;37.97;;;20.77;;
12145;SDS011;6136;47.032;15.398;2024-01-15T08:56:16;42.27;;;20.30;;
12145;SDS011;6136;47.032;15.398;2024-01-15T08:58:44;40.67;;;21.13;;
12145;SDS011;6136;47.032;15.398;2024-01-15T09:01:13;45.67;;;22.10;;
12145;SDS011;6136;47.032;15.398;2024-01-15T09:03:41;40.27;;;21.60;;
12145;SDS011;6136;47.032;15.398;2024-01-15T09:06:11;38.37;;;20.23;;
12145;SDS011;6136;47.032;15.398;2024-01-15T09:08:39;42.97;;;20.43;;
12145;SDS011;6136;47.032;15.398;2024-01-15T09:11:07;41.00;;;20.57;;
12145;SDS011;6136;47.032;15.398;2024-01-15T09:13:35;42.13;;;21.10;;
12145;SDS011;6136;47.032;15.398;2024-01-15T09:16:03;35.77;;;19.67;;
12145;SDS011;6136;47.032;15.398;2024-01-15T09:18:32;43.67;;;20.83;;
12145;SDS011;6136;47.032;15.398;2024-01-15T09:21:00;33.77;;;19.07;;
12145;SDS011;6136;47.032;15.398;2024-01-15T09:23:29;37.50;;;18.87;;
12145;SDS011;6136;47.032;15.398;2024-01-15T09:25:57;38.87;;;19.20;;
12145;SDS011;6136;47.032;15.398;2024-01-15T09:28:25;37.67;;;21.20;;
12145;SDS011;6136;47.032;15.398;2024-01-15T09:30:53;36.20;;;19.10;;
12145;SDS011;6136;47.032;15.398;2024-01-15T09:33:22;42.93;;;20.00;;
12145;SDS011;6136;47.032;15.398;2024-01-15T09:35:50;37.93;;;19.83;;
12145;SDS011;6136;47.032;15.398;2024-01-15T09:38:18;38.27;;;19.57;;
12145;SDS011;6136;47.032;15.398;2024-01-15T09:40:47;37.17;;;19.97;;
12145;SDS011;6136;47.032;15.398;2024-01-15T09:43:15;38.07;;;19.07;;
12145;SDS011;6136;47.032;15.398;2024-01-15T09:45:44;34.67;;;19.60;;
12145;SDS011;6136;47.032;15.398;2024-01-15T09:48:12;32.13;;;18.37;;
12145;SDS011;6136;47.032;15.398;2024-01-15T09:50:41;37.87;;;21.07;;
12145;SDS011;6136;47.032;15.398;2024-01-15T09:53:09;35.77;;;20.10;;
12145;SDS011;6136;47.032;15.398;2024-01-15T09:55:37;35.07;;;19.60;;
12145;SDS011;6136;47.032;15.398;2024-01-15T09:58:07;35.30;;;19.37;;
12145;SDS011;6136;47.032;15.398;2024-01-15T10:00:35;32.90;;;18.40;;
12145;SDS011;6136;47.032;15.398;2024-01-15T10:03:05;29.97;;;16.97;;
12145;SDS011;6136;47.032;15.398;2024-01-15T10:05:34;29.80;;;17.20;;
12145;SDS011;6136;47.032;15.398;2024-01-15T10:08:02;30.87;;;17.60;;
12145;SDS011;6136;47.032;15.398;2024-01-15T10:10:30;30.63;;;16.90;;
12145;SDS011;6136;47.032;15.398;2024-01-15T10:12:59;22.93;;;14.27;;
12145;SDS011;6136;47.032;15.398;2024-01-15T10:15:29;22.83;;;14.07;;
12145;SDS011;6136;47.032;15.398;2024-01-15T10:17:57;21.73;;;12.63;;
12145;SDS011;6136;47.032;15.398;2024-01-15T10:20:26;19.57;;;11.57;;
12145;SDS011;6136;47.032;15.398;2024-01-15T10:22:54;18.87;;;11.47;;
12145;SDS011;6136;47.032;15.398;2024-01-15T10:25:23;19.47;;;11.77;;
12145;SDS011;6136;47.032;15.398;2024-01-15T10:27:59;18.53;;;11.13;;
12145;SDS011;6136;47.032;15.398;2024-01-15T10:30:29;15.80;;;10.07;;
12145;SDS011;6136;47.032;15.398;2024-01-15T10:32:57;17.67;;;9.43;;
12145;SDS011;6136;47.032;15.398;2024-01-15T10:35:26;13.60;;;7.57;;
12145;SDS011;6136;47.032;15.398;2024-01-15T10:37:55;14.10;;;8.20;;
12145;SDS011;6136;47.032;15.398;2024-01-15T10:40:23;13.70;;;8.17;;
12145;SDS011;6136;47.032;15.398;2024-01-15T10:42:51;10.13;;;6.77;;
12145;SDS011;6136;47.032;15.398;2024-01-15T10:45:20;10.90;;;6.77;;
12145;SDS011;6136;47.032;15.398;2024-01-15T10:47:49;9.63;;;6.67;;
12145;SDS011;6136;47.032;15.398;2024-01-15T10:50:18;12.83;;;7.73;;
12145;SDS011;6136;47.032;15.398;2024-01-15T10:52:47;12.40;;;7.70;;
12145;SDS011;6136;47.032;15.398;2024-01-15T10:55:15;10.43;;;6.93;;
12145;SDS011;6136;47.032;15.398;2024-01-15T10:57:45;11.50;;;7.37;;
12145;SDS011;6136;47.032;15.398;2024-01-15T11:00:16;11.37;;;6.17;;
12145;SDS011;6136;47.032;15.398;2024-01-15T11:02:45;8.87;;;6.43;;
12145;SDS011;6136;47.032;15.398;2024-01-15T11:05:15;10.50;;;6.33;;
12145;SDS011;6136;47.032;15.398;2024-01-15T11:07:44;9.53;;;6.37;;
12145;SDS011;6136;47.032;15.398;2024-01-15T11:12:55;10.57;;;6.17;;
12145;SDS011;6136;47.032;15.398;2024-01-15T11:15:24;12.03;;;7.40;;
12145;SDS011;6136;47.032;15.398;2024-01-15T11:17:59;10.83;;;7.60;;
12145;SDS011;6136;47.032;15.398;2024-01-15T11:20:29;12.43;;;8.57;;
12145;SDS011;6136;47.032;15.398;2024-01-15T11:22:59;11.83;;;7.50;;
12145;SDS011;6136;47.032;15.398;2024-01-15T11:25:34;16.20;;;8.20;;
12145;SDS011;6136;47.032;15.398;2024-01-15T11:28:03;13.70;;;7.97;;
12145;SDS011;6136;47.032;15.398;2024-01-15T11:30:31;13.27;;;8.53;;
12145;SDS011;6136;47.032;15.398;2024-01-15T11:33:03;15.73;;;8.97;;
12145;SDS011;6136;47.032;15.398;2024-01-15T11:35:51;12.97;;;8.10;;
12145;SDS011;6136;47.032;15.398;2024-01-15T11:38:26;12.87;;;8.33;;
12145;SDS011;6136;47.032;15.398;2024-01-15T11:40:54;14.57;;;8.43;;
12145;SDS011;6136;47.032;15.398;2024-01-15T11:43:23;12.37;;;8.07;;
12145;SDS011;6136;47.032;15.398;2024-01-15T11:45:51;12.93;;;7.97;;
12145;SDS011;6136;47.032;15.398;2024-01-15T11:48:20;11.50;;;7.83;;
12145;SDS011;6136;47.032;15.398;2024-01-15T11:50:52;12.30;;;7.70;;
12145;SDS011;6136;47.032;15.398;2024-01-15T11:53:26;14.07;;;8.50;;
12145;SDS011;6136;47.032;15.398;2024-01-15T11:55:57;18.23;;;9.00;;
12145;SDS011;6136;47.032;15.398;2024-01-15T11:59:09;14.90;;;8.80;;
12145;SDS011;6136;47.032;15.398;2024-01-15T12:01:37;12.97;;;7.67;;
12145;SDS011;6136;47.032;15.398;2024-01-15T12:04:05;13.10;;;8.17;;
12145;SDS011;6136;47.032;15.398;2024-01-15T12:06:33;13.37;;;7.93;;
12145;SDS011;6136;47.032;15.398;2024-01-15T12:09:06;11.17;;;7.27;;
12145;SDS011;6136;47.032;15.398;2024-01-15T12:11:34;13.33;;;8.53;;
12145;SDS011;6136;47.032;15.398;2024-01-15T12:14:03;14.07;;;7.67;;
12145;SDS011;6136;47.032;15.398;2024-01-15T12:16:33;11.97;;;7.40;;
12145;SDS011;6136;47.032;15.398;2024-01-15T12:19:01;12.17;;;8.50;;
12145;SDS011;6136;47.032;15.398;2024-01-15T12:21:29;15.37;;;8.77;;
12145;SDS011;6136;47.032;15.398;2024-01-15T12:23:57;12.43;;;8.40;;
12145;SDS011;6136;47.032;15.398;2024-01-15T12:26:25;11.67;;;7.97;;
12145;SDS011;6136;47.032;15.398;2024-01-15T12:28:54;16.03;;;8.53;;
12145;SDS011;6136;47.032;15.398;2024-01-15T12:31:23;13.80;;;8.33;;
12145;SDS011;6136;47.032;15.398;2024-01-15T12:33:53;16.53;;;8.63;;
12145;SDS011;6136;47.032;15.398;2024-01-15T12:36:21;14.13;;;8.60;;
12145;SDS011;6136;47.032;15.398;2024-01-15T12:38:49;13.57;;;8.33;;
12145;SDS011;6136;47.032;15.398;2024-01-15T12:41:18;13.47;;;8.33;;
12145;SDS011;6136;47.032;15.398;2024-01-15T12:43:46;13.20;;;8.27;;
12145;SDS011;6136;47.032;15.398;2024-01-15T12:46:14;15.13;;;8.10;;
12145;SDS011;6136;47.032;15.398;2024-01-15T12:48:42;18.60;;;10.33;;
12145;SDS011;6136;47.032;15.398;2024-01-15T12:51:12;14.03;;;8.97;;
12145;SDS011;6136;47.032;15.398;2024-01-15T12:53:40;14.77;;;8.57;;
12145;SDS011;6136;47.032;15.398;2024-01-15T12:56:08;15.27;;;9.33;;
12145;SDS011;6136;47.032;15.398;2024-01-15T12:58:36;15.10;;;8.70;;
12145;SDS011;6136;47.032;15.398;2024-01-15T13:01:04;13.87;;;8.67;;
12145;SDS011;6136;47.032;15.398;2024-01-15T13:03:32;14.03;;;8.40;;
12145;SDS011;6136;47.032;15.398;2024-01-15T13:06:00;18.07;;;10.53;;
12145;SDS011;6136;47.032;15.398;2024-01-15T13:08:30;12.47;;;8.37;;
12145;SDS011;6136;47.032;15.398;2024-01-15T13:10:58;13.27;;;8.20;;
12145;SDS011;6136;47.032;15.398;2024-01-15T13:13:26;14.77;;;8.37;;
12145;SDS011;6136;47.032;15.398;2024-01-15T13:15:54;13.33;;;8.87;;
12145;SDS011;6136;47.032;15.398;2024-01-15T13:18:22;11.87;;;8.33;;
12145;SDS011;6136;47.032;15.398;2024-01-15T13:20:50;12.40;;;8.73;;
12145;SDS011;6136;47.032;15.398;2024-01-15T13:23:18;12.10;;;8.57;;
12145;SDS011;6136;47.032;15.398;2024-01-15T13:25:48;18.90;;;10.10;;
12145;SDS011;6136;47.032;15.398;2024-01-15T13:28:16;13.43;;;8.97;;
12145;SDS011;6136;47.032;15.398;2024-01-15T13:30:44;14.80;;;8.83;;
12145;SDS011;6136;47.032;15.398;2024-01-15T13:33:12;13.33;;;7.77;;
12145;SDS011;6136;47.032;15.398;2024-01-15T13:35:41;15.67;;;8.93;;
12145;SDS011;6136;47.032;15.398;2024-01-15T13:38:09;13.00;;;8.63;;
12145;SDS011;6136;47.032;15.398;2024-01-15T13:40:37;14.17;;;8.93;;
12145;SDS011;6136;47.032;15.398;2024-01-15T13:43:07;15.10;;;9.13;;
12145;SDS011;6136;47.032;15.398;2024-01-15T13:45:35;14.60;;;8.63;;
12145;SDS011;6136;47.032;15.398;2024-01-15T13:48:04;14.30;;;8.77;;
12145;SDS011;6136;47.032;15.398;2024-01-15T13:50:32;14.87;;;9.20;;
12145;SDS011;6136;47.032;15.398;2024-01-15T13:53:00;15.87;;;9.33;;
12145;SDS011;6136;47.032;15.398;2024-01-15T13:55:29;13.37;;;8.40;;
12145;SDS011;6136;47.032;15.398;2024-01-15T13:57:58;16.13;;;8.93;;
12145;SDS011;6136;47.032;15.398;2024-01-15T14:00:27;15.73;;;9.83;;
12145;SDS011;6136;47.032;15.398;2024-01-15T14:02:55;15.13;;;8.67;;
12145;SDS011;6136;47.032;15.398;2024-01-15T14:05:24;13.73;;;8.10;;
12145;SDS011;6136;47.032;15.398;2024-01-15T14:07:53;10.67;;;7.90;;
12145;SDS011;6136;47.032;15.398;2024-01-15T14:10:21;10.90;;;6.67;;
12145;SDS011;6136;47.032;15.398;2024-01-15T14:12:49;12.50;;;7.40;;
12145;SDS011;6136;47.032;15.398;2024-01-15T14:15:17;15.63;;;7.20;;
12145;SDS011;6136;47.032;15.398;2024-01-15T14:17:49;11.73;;;7.23;;
12145;SDS011;6136;47.032;15.398;2024-01-15T14:20:18;12.43;;;6.83;;
12145;SDS011;6136;47.032;15.398;2024-01-15T14:22:48;11.63;;;7.40;;
12145;SDS011;6136;47.032;15.398;2024-01-15T14:25:16;13.13;;;7.13;;
12145;SDS011;6136;47.032;15.398;2024-01-15T14:27:44;15.17;;;7.97;;
12145;SDS011;6136;47.032;15.398;2024-01-15T14:30:13;12.10;;;7.73;;
12145;SDS011;6136;47.032;15.398;2024-01-15T14:32:42;17.03;;;7.87;;
12145;SDS011;6136;47.032;15.398;2024-01-15T14:35:13;12.23;;;6.90;;
12145;SDS011;6136;47.032;15.398;2024-01-15T14:37:41;11.53;;;7.43;;
12145;SDS011;6136;47.032;15.398;2024-01-15T14:40:09;15.60;;;8.00;;
12145;SDS011;6136;47.032;15.398;2024-01-15T14:42:40;11.37;;;7.70;;
12145;SDS011;6136;47.032;15.398;2024-01-15T14:45:09;10.03;;;6.80;;
12145;SDS011;6136;47.032;15.398;2024-01-15T14:47:39;12.23;;;7.47;;
12145;SDS011;6136;47.032;15.398;2024-01-15T14:50:07;10.57;;;7.20;;
12145;SDS011;6136;47.032;15.398;2024-01-15T14:52:42;12.63;;;7.87;;
12145;SDS011;6136;47.032;15.398;2024-01-15T14:58:44;13.53;;;7.53;;
12145;SDS011;6136;47.032;15.398;2024-01-15T15:01:12;16.13;;;8.87;;
12145;SDS011;6136;47.032;15.398;2024-01-15T15:03:40;15.67;;;8.30;;